createdAt,value
2023-04-11T00:00:33.242Z,101382.63
2023-04-11T00:03:02.754Z,101378.16
2023-04-11T00:05:32.332Z,101387.81
2023-04-11T00:08:00.686Z,101381.53
2023-04-11T00:10:28.557Z,101401.16
2023-04-11T00:12:56.796Z,101392.22
2023-04-11T00:15:26.763Z,101386.88
2023-04-11T00:17:55.131Z,101394.16
2023-04-11T00:20:23.125Z,101379.03
2023-04-11T00:22:54.260Z,101382.63
2023-04-11T00:25:22.465Z,101388.47
2023-04-11T00:27:50.373Z,101397.75
2023-04-11T00:30:18.248Z,101388.31
2023-04-11T00:32:46.792Z,101395.34
2023-04-11T00:35:14.732Z,101403.91
2023-04-11T00:37:44.383Z,101399.56
2023-04-11T00:40:17.783Z,101401.78
2023-04-11T00:42:45.720Z,101400.00
2023-04-11T00:45:14.037Z,101394.53
2023-04-11T00:47:42.230Z,101401.59
2023-04-11T00:50:13.941Z,101405.88
2023-04-11T00:52:42.183Z,101382.97
2023-04-11T00:55:10.804Z,101391.44
2023-04-11T00:57:41.920Z,101399.25
2023-04-11T01:00:11.836Z,101385.84
2023-04-11T01:02:43.237Z,101385.75
2023-04-11T01:05:12.604Z,101372.28
2023-04-11T01:07:41.221Z,101386.22
2023-04-11T01:10:10.264Z,101390.53
2023-04-11T01:12:39.687Z,101379.03
2023-04-11T01:15:08.616Z,101397.31
2023-04-11T01:17:36.725Z,101395.31
2023-04-11T01:20:07.807Z,101392.50
2023-04-11T01:22:35.918Z,101381.75
2023-04-11T01:25:05.844Z,101382.47
2023-04-11T01:27:34.397Z,101378.09
2023-04-11T01:30:02.629Z,101387.53
2023-04-11T01:32:30.537Z,101386.41
2023-04-11T01:34:58.552Z,101383.69
2023-04-11T01:37:26.485Z,101374.09
2023-04-11T01:39:54.355Z,101373.78
2023-04-11T01:42:24.099Z,101365.78
2023-04-11T01:44:52.073Z,101362.50
2023-04-11T01:47:19.958Z,101371.88
2023-04-11T01:49:48.049Z,101377.06
2023-04-11T01:52:15.939Z,101370.13
2023-04-11T01:54:43.911Z,101376.88
2023-04-11T01:57:11.806Z,101375.97
2023-04-11T01:59:41.043Z,101383.19
2023-04-11T02:02:09.001Z,101376.19
2023-04-11T02:04:36.948Z,101388.69
2023-04-11T02:07:04.852Z,101379.91
2023-04-11T02:09:32.935Z,101384.31
2023-04-11T02:12:01.188Z,101385.25
2023-04-11T02:14:30.047Z,101379.97
2023-04-11T02:16:59.464Z,101371.91
2023-04-11T02:19:27.383Z,101375.38
2023-04-11T02:21:55.370Z,101364.72
2023-04-11T02:24:23.253Z,101367.34
2023-04-11T02:26:51.140Z,101369.22
2023-04-11T02:29:19.077Z,101373.50
2023-04-11T02:31:49.476Z,101373.53
2023-04-11T02:34:18.875Z,101366.38
2023-04-11T02:36:46.892Z,101360.16
2023-04-11T02:39:14.971Z,101363.75
2023-04-11T02:41:43.311Z,101362.84
2023-04-11T02:44:11.867Z,101367.19
2023-04-11T02:46:39.894Z,101365.31
2023-04-11T02:49:07.777Z,101366.22
2023-04-11T02:51:37.021Z,101354.75
2023-04-11T02:54:06.147Z,101353.66
2023-04-11T02:56:34.996Z,101357.13
2023-04-11T02:59:02.893Z,101359.66
2023-04-11T03:01:31.112Z,101350.13
2023-04-11T03:03:59.238Z,101351.13
2023-04-11T03:06:28.197Z,101356.25
2023-04-11T03:08:57.772Z,101355.38
2023-04-11T03:11:25.855Z,101350.84
2023-04-11T03:13:53.828Z,101334.25
2023-04-11T03:16:21.769Z,101347.22
2023-04-11T03:18:49.707Z,101346.28
2023-04-11T03:21:17.693Z,101348.78
2023-04-11T03:23:45.594Z,101337.06
2023-04-11T03:26:15.847Z,101331.66
2023-04-11T03:28:43.777Z,101336.00
2023-04-11T03:31:12.034Z,101329.84
2023-04-11T03:33:40.104Z,101328.00
2023-04-11T03:36:08.929Z,101315.78
2023-04-11T03:38:36.930Z,101316.91
2023-04-11T03:41:05.015Z,101303.66
2023-04-11T03:43:34.308Z,101311.69
2023-04-11T03:46:02.169Z,101304.75
2023-04-11T03:48:31.070Z,101313.69
2023-04-11T03:50:59.028Z,101303.03
2023-04-11T03:53:26.890Z,101309.22
2023-04-11T03:55:54.847Z,101298.50
2023-04-11T03:58:22.732Z,101323.94
2023-04-11T04:00:52.033Z,101325.56
2023-04-11T04:03:20.094Z,101315.44
2023-04-11T04:05:48.142Z,101309.69
2023-04-11T04:08:16.331Z,101313.97
2023-04-11T04:10:44.235Z,101311.81
2023-04-11T04:13:12.246Z,101302.38
2023-04-11T04:15:40.119Z,101317.63
2023-04-11T04:18:09.586Z,101320.69
2023-04-11T04:20:37.518Z,101324.41
2023-04-11T04:23:05.639Z,101321.97
2023-04-11T04:25:33.638Z,101315.91
2023-04-11T04:28:01.540Z,101314.06
2023-04-11T04:30:29.690Z,101314.88
2023-04-11T04:32:59.183Z,101325.34
2023-04-11T04:35:28.717Z,101322.47
2023-04-11T04:37:56.817Z,101315.03
2023-04-11T04:40:26.157Z,101310.22
2023-04-11T04:42:58.645Z,101308.13
2023-04-11T04:45:27.098Z,101309.53
2023-04-11T04:47:55.075Z,101303.94
2023-04-11T04:50:23.301Z,101306.41
2023-04-11T04:52:52.644Z,101306.44
2023-04-11T04:55:20.778Z,101314.16
2023-04-11T04:57:48.651Z,101317.69
2023-04-11T05:00:17.092Z,101317.56
2023-04-11T05:02:45.128Z,101312.22
2023-04-11T05:05:14.035Z,101308.72
2023-04-11T05:07:42.609Z,101299.78
2023-04-11T05:10:12.113Z,101305.94
2023-04-11T05:12:40.560Z,101288.41
2023-04-11T05:15:11.675Z,101291.00
2023-04-11T05:17:39.618Z,101297.38
2023-04-11T05:20:09.125Z,101299.09
2023-04-11T05:22:38.070Z,101291.97
2023-04-11T05:25:08.840Z,101287.28
2023-04-11T05:27:38.169Z,101288.88
2023-04-11T05:30:07.182Z,101286.13
2023-04-11T05:32:35.158Z,101278.09
2023-04-11T05:35:03.182Z,101267.69
2023-04-11T05:37:32.365Z,101282.41
2023-04-11T05:40:00.504Z,101290.31
2023-04-11T05:42:28.490Z,101289.25
2023-04-11T05:44:57.749Z,101285.53
2023-04-11T05:47:26.056Z,101281.81
2023-04-11T05:49:54.025Z,101269.19
2023-04-11T05:52:22.039Z,101267.34
2023-04-11T05:54:49.943Z,101263.31
2023-04-11T05:57:18.201Z,101271.13
2023-04-11T05:59:49.798Z,101274.41
2023-04-11T06:02:19.305Z,101270.50
2023-04-11T06:04:47.495Z,101270.38
2023-04-11T06:07:15.470Z,101268.44
2023-04-11T06:09:44.435Z,101278.97
2023-04-11T06:12:12.417Z,101275.25
2023-04-11T06:14:40.745Z,101269.00
2023-04-11T06:17:09.734Z,101263.50
2023-04-11T06:19:39.382Z,101270.66
2023-04-11T06:22:07.515Z,101278.41
2023-04-11T06:24:36.165Z,101275.59
2023-04-11T06:27:04.530Z,101268.28
2023-04-11T06:29:32.555Z,101267.28
2023-04-11T06:32:00.640Z,101283.66
2023-04-11T06:34:28.690Z,101281.47
2023-04-11T06:36:58.475Z,101277.47
2023-04-11T06:39:26.592Z,101282.38
2023-04-11T06:41:54.567Z,101282.13
2023-04-11T06:44:22.662Z,101271.09
2023-04-11T06:46:50.905Z,101267.31
2023-04-11T06:49:19.055Z,101274.34
2023-04-11T06:51:50.057Z,101286.91
2023-04-11T06:54:19.600Z,101266.84
2023-04-11T06:56:47.611Z,101265.13
2023-04-11T06:59:15.758Z,101255.47
2023-04-11T07:01:44.007Z,101242.31
2023-04-11T07:04:12.212Z,101259.13
2023-04-11T07:06:40.396Z,101265.34
2023-04-11T07:09:09.657Z,101265.53
2023-04-11T07:11:39.593Z,101264.53
2023-04-11T07:14:07.725Z,101259.91
2023-04-11T07:16:35.709Z,101259.72
2023-04-11T07:19:06.132Z,101255.97
2023-04-11T07:21:34.222Z,101231.09
2023-04-11T07:24:02.229Z,101242.78
2023-04-11T07:26:32.705Z,101248.41
2023-04-11T07:29:02.239Z,101252.34
2023-04-11T07:31:31.034Z,101240.44
2023-04-11T07:33:59.208Z,101231.28
2023-04-11T07:36:27.739Z,101238.13
2023-04-11T07:38:55.890Z,101229.69
2023-04-11T07:41:23.896Z,101236.63
2023-04-11T07:43:51.913Z,101239.94
2023-04-11T07:46:21.474Z,101220.38
2023-04-11T07:48:49.616Z,101220.28
2023-04-11T07:51:19.025Z,101232.56
2023-04-11T07:53:47.152Z,101201.75
2023-04-11T07:56:16.492Z,101221.88
2023-04-11T07:58:44.613Z,101219.06
2023-04-11T08:01:22.746Z,101202.97
2023-04-11T08:03:51.048Z,101197.69
2023-04-11T08:06:19.135Z,101201.78
2023-04-11T08:08:47.551Z,101192.75
2023-04-11T08:11:15.568Z,101183.16
2023-04-11T08:13:43.617Z,101189.28
2023-04-11T08:16:12.520Z,101202.44
2023-04-11T08:18:43.206Z,101201.47
2023-04-11T08:21:12.614Z,101196.75
2023-04-11T08:23:42.432Z,101197.31
2023-04-11T08:26:13.089Z,101196.16
2023-04-11T08:28:43.050Z,101181.06
2023-04-11T08:31:13.476Z,101180.81
2023-04-11T08:33:42.999Z,101176.72
2023-04-11T08:36:11.744Z,101175.94
2023-04-11T08:38:39.854Z,101164.38
2023-04-11T08:41:08.040Z,101169.03
2023-04-11T08:43:36.049Z,101164.22
2023-04-11T08:46:04.184Z,101151.25
2023-04-11T08:48:32.494Z,101149.13
2023-04-11T08:51:01.955Z,101151.38
2023-04-11T08:53:30.282Z,101138.56
2023-04-11T08:55:59.942Z,101139.03
2023-04-11T08:58:28.378Z,101138.84
2023-04-11T09:00:56.273Z,101135.78
2023-04-11T09:03:24.446Z,101123.63
2023-04-11T09:05:52.521Z,101136.19
2023-04-11T09:08:21.865Z,101129.47
2023-04-11T09:10:50.100Z,101123.25
2023-04-11T09:13:22.841Z,101123.06
2023-04-11T09:16:05.476Z,101113.47
2023-04-11T09:18:34.114Z,101108.47
2023-04-11T09:21:04.274Z,101094.03
2023-04-11T09:23:33.570Z,101087.94
2023-04-11T09:26:01.495Z,101078.06
2023-04-11T09:28:29.687Z,101067.03
2023-04-11T09:30:57.922Z,101063.78
2023-04-11T09:33:29.967Z,101066.13
2023-04-11T09:35:57.903Z,101065.28
2023-04-11T09:38:30.840Z,101051.13
2023-04-11T09:41:00.762Z,101051.81
2023-04-11T09:43:28.712Z,101044.56
2023-04-11T09:46:10.197Z,101031.78
2023-04-11T09:49:01.130Z,101029.75
2023-04-11T09:53:57.999Z,101030.69
2023-04-11T09:56:28.433Z,101021.75
2023-04-11T09:58:56.562Z,101020.47
2023-04-11T10:01:25.132Z,101026.34
2023-04-11T10:03:54.149Z,101021.22
2023-04-11T10:06:26.430Z,101015.78
2023-04-11T10:08:54.935Z,101021.00
2023-04-11T10:11:24.398Z,101000.94
2023-04-11T10:13:53.800Z,101011.16
2023-04-11T10:16:24.146Z,101028.28
2023-04-11T10:19:28.555Z,101020.44
2023-04-11T10:21:56.820Z,100991.75
2023-04-11T10:24:26.762Z,100995.44
2023-04-11T10:26:55.635Z,100996.31
2023-04-11T10:29:53.583Z,100988.34
2023-04-11T10:32:22.740Z,100984.97
2023-04-11T10:35:33.140Z,100980.53
2023-04-11T10:38:01.134Z,100969.28
2023-04-11T10:40:28.984Z,100964.97
2023-04-11T10:42:57.467Z,100966.03
2023-04-11T10:45:27.355Z,100961.13
2023-04-11T10:48:12.883Z,100972.81
2023-04-11T10:50:42.397Z,100952.06
2023-04-11T10:53:14.387Z,100947.81
2023-04-11T10:55:47.179Z,100937.16
2023-04-11T10:58:19.136Z,100939.59
2023-04-11T11:01:32.419Z,100917.22
2023-04-11T11:04:12.311Z,100918.19
2023-04-11T11:06:47.286Z,100925.88
2023-04-11T11:09:23.259Z,100918.72
2023-04-11T11:12:06.673Z,100910.88
2023-04-11T11:14:34.716Z,100903.00
2023-04-11T11:17:03.082Z,100888.88
2023-04-11T11:19:33.382Z,100881.28
2023-04-11T11:22:04.117Z,100877.09
2023-04-11T11:24:32.813Z,100880.81
2023-04-11T11:27:00.786Z,100866.38
2023-04-11T11:29:32.290Z,100867.31
2023-04-11T11:32:01.310Z,100862.84
2023-04-11T11:34:30.034Z,100844.63
2023-04-11T11:36:59.609Z,100855.84
2023-04-11T11:39:27.556Z,100851.47
2023-04-11T11:41:56.143Z,100846.28
2023-04-11T11:44:24.531Z,100842.13
2023-04-11T11:47:02.549Z,100822.59
2023-04-11T11:49:44.722Z,100815.28
2023-04-11T11:52:14.177Z,100828.00
2023-04-11T11:54:46.630Z,100804.31
2023-04-11T11:57:22.786Z,100812.84
2023-04-11T11:59:54.491Z,100808.47
2023-04-11T12:02:23.544Z,100803.38
2023-04-11T12:04:52.098Z,100789.41
2023-04-11T12:07:23.686Z,100779.75
2023-04-11T12:09:57.086Z,100781.16
2023-04-11T12:12:25.387Z,100771.38
2023-04-11T12:14:54.595Z,100777.31
2023-04-11T12:17:22.583Z,100761.00
2023-04-11T12:19:50.614Z,100748.44
2023-04-11T12:22:18.894Z,100730.53
2023-04-11T12:24:48.299Z,100713.66
2023-04-11T12:27:16.342Z,100716.16
2023-04-11T12:29:44.390Z,100708.16
2023-04-11T12:32:12.327Z,100713.31
2023-04-11T12:34:40.349Z,100702.81
2023-04-11T12:37:08.948Z,100687.06
2023-04-11T12:39:37.810Z,100676.38
2023-04-11T12:42:07.974Z,100652.53
2023-04-11T12:44:36.511Z,100651.59
2023-04-11T12:47:04.444Z,100633.50
2023-04-11T12:49:32.321Z,100639.31
2023-04-11T12:52:00.242Z,100634.03
2023-04-11T12:54:28.310Z,100634.91
2023-04-11T12:56:58.168Z,100633.34
2023-04-11T12:59:28.177Z,100619.13
2023-04-11T13:01:57.738Z,100607.00
2023-04-11T13:04:25.981Z,100595.47
2023-04-11T13:06:54.334Z,100594.94
2023-04-11T13:09:22.465Z,100599.41
2023-04-11T13:11:50.554Z,100590.72
2023-04-11T13:14:18.644Z,100584.53
2023-04-11T13:16:48.394Z,100554.06
2023-04-11T13:19:17.366Z,100571.69
2023-04-11T13:21:46.204Z,100544.34
2023-04-11T13:24:14.381Z,100546.94
2023-04-11T13:26:44.875Z,100528.25
2023-04-11T13:29:13.016Z,100520.00
2023-04-11T13:31:41.016Z,100510.53
2023-04-11T13:34:10.364Z,100496.06
2023-04-11T13:36:38.325Z,100494.78
2023-04-11T13:39:07.478Z,100487.91
2023-04-11T13:41:35.603Z,100494.53
2023-04-11T13:44:03.803Z,100479.56
2023-04-11T13:46:31.821Z,100462.78
2023-04-11T13:49:00.212Z,100443.34
2023-04-11T13:51:30.047Z,100435.56
2023-04-11T13:53:57.997Z,100429.25
2023-04-11T13:56:26.565Z,100418.22
2023-04-11T13:58:54.770Z,100415.56
2023-04-11T14:01:23.112Z,100406.63
2023-04-11T14:03:51.293Z,100397.38
2023-04-11T14:06:19.764Z,100377.56
2023-04-11T14:08:50.660Z,100369.41
2023-04-11T14:11:19.148Z,100347.31
2023-04-11T14:13:47.245Z,100336.81
2023-04-11T14:16:15.506Z,100325.50
2023-04-11T14:18:44.729Z,100313.19
2023-04-11T14:21:12.761Z,100294.53
2023-04-11T14:23:41.393Z,100290.13
2023-04-11T14:26:11.130Z,100273.38
2023-04-11T14:28:41.153Z,100266.25
2023-04-11T14:31:09.829Z,100247.00
2023-04-11T14:33:37.938Z,100237.59
2023-04-11T14:36:06.349Z,100240.19
2023-04-11T14:38:35.802Z,100223.59
2023-04-11T14:41:04.925Z,100217.41
2023-04-11T14:43:34.561Z,100204.19
2023-04-11T14:46:02.463Z,100186.69
2023-04-11T14:48:30.560Z,100166.41
2023-04-11T14:50:58.413Z,100167.34
2023-04-11T14:53:26.393Z,100148.03
2023-04-11T14:55:54.263Z,100142.69
2023-04-11T14:58:22.147Z,100130.69
2023-04-11T15:00:51.545Z,100109.97
2023-04-11T15:03:20.212Z,100095.78
2023-04-11T15:05:48.316Z,100074.56
2023-04-11T15:08:16.263Z,100065.44
2023-04-11T15:10:44.198Z,100064.47
2023-04-11T15:13:13.063Z,100038.78
2023-04-11T15:15:41.197Z,100007.59
2023-04-11T15:18:23.696Z,100002.03
2023-04-11T15:20:52.494Z,99986.34
2023-04-11T15:23:20.668Z,99981.50
2023-04-11T15:25:48.935Z,99962.06
2023-04-11T15:28:16.851Z,99951.91
2023-04-11T15:30:48.338Z,99945.72
2023-04-11T15:33:17.315Z,99931.44
2023-04-11T15:35:47.014Z,99921.75
2023-04-11T15:38:20.130Z,99927.06
2023-04-11T15:40:50.537Z,99929.81
2023-04-11T15:43:18.517Z,99938.59
2023-04-11T15:45:46.376Z,99911.94
2023-04-11T15:48:14.314Z,99886.13
2023-04-11T15:50:42.364Z,99885.09
2023-04-11T15:53:11.888Z,99869.84
2023-04-11T15:55:40.323Z,99851.31
2023-04-11T15:58:08.205Z,99870.72
2023-04-11T16:00:36.465Z,99877.22
2023-04-11T16:03:04.748Z,99867.94
2023-04-11T16:05:32.853Z,99843.13
2023-04-11T16:08:00.745Z,99808.19
2023-04-11T16:10:31.098Z,99825.72
2023-04-11T16:12:59.057Z,99806.00
2023-04-11T16:15:26.944Z,99813.03
2023-04-11T16:17:54.811Z,99803.97
2023-04-11T16:20:22.960Z,99807.28
2023-04-11T16:22:50.947Z,99810.81
2023-04-11T16:25:21.205Z,99810.41
2023-04-11T16:27:51.309Z,99811.94
2023-04-11T16:30:19.328Z,99834.00
2023-04-11T16:32:47.277Z,99795.19
2023-04-11T16:35:15.485Z,99804.75
2023-04-11T16:37:43.551Z,99776.97
2023-04-11T16:40:12.165Z,99797.00
2023-04-11T16:42:40.090Z,99767.69
2023-04-11T16:45:10.928Z,99762.91
2023-04-11T16:47:39.103Z,99781.44
2023-04-11T16:50:08.029Z,99774.94
2023-04-11T16:52:36.129Z,99766.63
2023-04-11T16:55:04.080Z,99783.28
2023-04-11T16:57:33.344Z,99742.00
2023-04-11T17:00:06.697Z,99775.19
2023-04-11T17:02:36.106Z,99757.25
2023-04-11T17:05:04.099Z,99772.19
2023-04-11T17:07:33.341Z,99751.91
2023-04-11T17:10:01.482Z,99752.66
2023-04-11T17:12:30.009Z,99747.00
2023-04-11T17:14:59.354Z,99776.78
2023-04-11T17:17:27.329Z,99781.81
2023-04-11T17:19:57.049Z,99786.09
2023-04-11T17:22:25.324Z,99772.94
2023-04-11T17:24:54.079Z,99776.47
2023-04-11T17:27:22.285Z,99792.91
2023-04-11T17:29:50.207Z,99774.34
2023-04-11T17:32:18.082Z,99777.88
2023-04-11T17:34:47.631Z,99764.41
2023-04-11T17:37:16.890Z,99776.16
2023-04-11T17:39:46.386Z,99775.22
2023-04-11T17:42:14.760Z,99778.94
2023-04-11T17:44:42.830Z,99780.00
2023-04-11T17:47:10.798Z,99807.44
2023-04-11T17:49:38.751Z,99809.16
2023-04-11T17:52:06.650Z,99807.75
2023-04-11T17:54:36.483Z,99812.31
2023-04-11T17:57:04.448Z,99795.16
2023-04-11T17:59:32.811Z,99806.88
2023-04-11T18:02:00.911Z,99804.22
2023-04-11T18:04:29.398Z,99804.00
2023-04-11T18:06:58.219Z,99814.16
2023-04-11T18:09:28.068Z,99795.25
2023-04-11T18:11:58.343Z,99795.28
2023-04-11T18:14:26.288Z,99798.38
2023-04-11T18:16:54.163Z,99798.47
2023-04-11T18:19:22.023Z,99800.63
2023-04-11T18:21:50.704Z,99801.56
2023-04-11T18:24:18.622Z,99812.16
2023-04-11T18:26:47.050Z,99816.81
2023-04-11T18:29:16.327Z,99824.09
2023-04-11T18:31:44.367Z,99812.00
2023-04-11T18:34:12.449Z,99833.34
2023-04-11T18:36:40.681Z,99841.31
2023-04-11T18:39:09.071Z,99831.47
2023-04-11T18:41:37.033Z,99824.97
2023-04-11T18:44:06.069Z,99830.38
2023-04-11T18:46:37.095Z,99831.41
2023-04-11T18:49:05.988Z,99829.72
2023-04-11T18:51:35.642Z,99849.25
2023-04-11T18:54:03.511Z,99828.69
2023-04-11T18:56:31.568Z,99834.00
2023-04-11T18:59:05.991Z,99831.22
2023-04-11T19:01:38.607Z,99823.44
2023-04-11T19:04:07.758Z,99832.28
2023-04-11T19:06:36.394Z,99823.34
2023-04-11T19:09:04.541Z,99819.38
2023-04-11T19:11:32.408Z,99825.00
2023-04-11T19:14:01.448Z,99817.31
2023-04-11T19:16:29.992Z,99817.31
2023-04-11T19:18:59.555Z,99806.00
2023-04-11T19:21:27.967Z,99823.50
2023-04-11T19:23:57.715Z,99819.69
2023-04-11T19:26:27.445Z,99819.56
2023-04-11T19:28:55.472Z,99859.31
2023-04-11T19:31:25.730Z,99840.25
2023-04-11T19:33:54.413Z,99861.31
2023-04-11T19:36:23.821Z,99853.81
2023-04-11T19:38:51.956Z,99856.78
2023-04-11T19:41:20.476Z,99868.56
2023-04-11T19:43:48.655Z,99865.88
2023-04-11T19:46:16.838Z,99880.72
2023-04-11T19:48:44.920Z,99851.41
2023-04-11T19:51:12.988Z,99871.81
2023-04-11T19:53:42.252Z,99858.22
2023-04-11T19:56:11.011Z,99866.72
2023-04-11T19:58:39.966Z,99854.78
2023-04-11T20:01:08.341Z,99861.53
2023-04-11T20:03:36.938Z,99842.16
2023-04-11T20:06:05.927Z,99858.25
2023-04-11T20:08:33.943Z,99847.22
2023-04-11T20:11:03.884Z,99851.28
2023-04-11T20:13:33.674Z,99854.63
2023-04-11T20:16:04.711Z,99825.91
2023-04-11T20:18:33.378Z,99842.66
2023-04-11T20:21:03.068Z,99839.63
2023-04-11T20:23:33.514Z,99829.72
2023-04-11T20:26:01.403Z,99823.53
2023-04-11T20:28:30.994Z,99813.56
2023-04-11T20:30:59.936Z,99804.81
2023-04-11T20:33:28.688Z,99818.44
2023-04-11T20:35:57.045Z,99805.31
2023-04-11T20:38:26.416Z,99805.22
2023-04-11T20:40:54.336Z,99810.34
2023-04-11T20:43:25.314Z,99806.91
2023-04-11T20:45:57.601Z,99817.66
2023-04-11T20:48:25.996Z,99826.50
2023-04-11T20:50:55.825Z,99826.41
2023-04-11T20:53:24.387Z,99831.72
2023-04-11T20:55:52.963Z,99816.53
2023-04-11T20:58:21.525Z,99810.34
2023-04-11T21:00:49.422Z,99821.94
2023-04-11T21:03:18.814Z,99858.22
2023-04-11T21:05:48.241Z,99845.69
2023-04-11T21:08:16.179Z,99834.28
2023-04-11T21:10:44.180Z,99824.69
2023-04-11T21:13:12.059Z,99821.09
2023-04-11T21:15:40.077Z,99814.16
2023-04-11T21:18:08.040Z,99820.22
2023-04-11T21:20:37.280Z,99838.94
2023-04-11T21:23:05.201Z,99818.88
2023-04-11T21:25:33.293Z,99808.63
2023-04-11T21:28:01.268Z,99822.31
2023-04-11T21:30:30.591Z,99817.56
2023-04-11T21:32:58.564Z,99836.06
2023-04-11T21:35:26.737Z,99835.41
2023-04-11T21:37:56.006Z,99845.84
2023-04-11T21:40:23.924Z,99826.41
2023-04-11T21:42:51.796Z,99829.06
2023-04-11T21:45:19.838Z,99838.63
2023-04-11T21:47:47.717Z,99835.03
2023-04-11T21:50:15.727Z,99829.72
2023-04-11T21:52:44.559Z,99824.50
2023-04-11T21:55:13.907Z,99852.88
2023-04-11T21:57:41.824Z,99833.69
2023-04-11T22:00:11.862Z,99838.81
2023-04-11T22:02:39.939Z,99816.16
2023-04-11T22:05:09.880Z,99852.19
2023-04-11T22:07:47.417Z,99845.84
2023-04-11T22:10:23.822Z,99844.16
2023-04-11T22:12:53.960Z,99840.72
2023-04-11T22:15:21.975Z,99838.91
2023-04-11T22:17:51.216Z,99844.44
2023-04-11T22:20:20.010Z,99830.09
2023-04-11T22:22:47.966Z,99859.53
2023-04-11T22:25:18.453Z,99843.03
2023-04-11T22:27:46.425Z,99842.75
2023-04-11T22:30:16.478Z,99857.72
2023-04-11T22:32:44.454Z,99864.56
2023-04-11T22:35:13.617Z,99884.72
2023-04-11T22:37:41.616Z,99888.00
2023-04-11T22:40:11.794Z,99870.13
2023-04-11T22:42:41.701Z,99857.34
2023-04-11T22:45:10.715Z,99846.41
2023-04-11T22:47:40.184Z,99842.38
2023-04-11T22:50:09.437Z,99849.06
2023-04-11T22:52:37.834Z,99836.66
2023-04-11T22:55:07.372Z,99835.88
2023-04-11T22:57:36.882Z,99839.50
2023-04-11T23:00:09.069Z,99841.97
2023-04-11T23:02:37.516Z,99841.94
2023-04-11T23:05:06.069Z,99845.03
2023-04-11T23:07:34.438Z,99846.81
2023-04-11T23:10:04.402Z,99830.63
2023-04-11T23:12:32.404Z,99842.06
2023-04-11T23:15:02.437Z,99837.72
2023-04-11T23:17:31.893Z,99836.66
2023-04-11T23:20:01.834Z,99841.31
2023-04-11T23:22:29.749Z,99841.03
2023-04-11T23:24:57.820Z,99851.22
2023-04-11T23:27:25.715Z,99827.84
2023-04-11T23:29:54.304Z,99819.44
2023-04-11T23:32:22.964Z,99824.03
2023-04-11T23:34:52.414Z,99819.09
2023-04-11T23:37:20.411Z,99827.16
2023-04-11T23:39:49.049Z,99820.53
2023-04-11T23:42:16.966Z,99822.75
2023-04-11T23:44:44.839Z,99830.47
2023-04-11T23:47:12.692Z,99825.09
2023-04-11T23:49:40.857Z,99817.19
2023-04-11T23:52:11.164Z,99822.34
2023-04-11T23:54:39.082Z,99804.63
2023-04-11T23:57:07.188Z,99821.47
2023-04-11T23:59:35.074Z,99825.25
